sensor_id;sensor_type;location;lat;lon;timestamp;P1;durP1;ratioP1;P2;durP2;ratioP2
8831;SDS011;4452;50.756;4.472;2023-06-22T00:01:06;6.95;;;5.70;;
8831;SDS011;4452;50.756;4.472;2023-06-22T00:03:31;6.25;;;5.15;;
8831;SDS011;4452;50.756;4.472;2023-06-22T00:05:57;8.45;;;5.78;;
8831;SDS011;4452;50.756;4.472;2023-06-22T00:08:23;5.88;;;5.38;;
8831;SDS011;4452;50.756;4.472;2023-06-22T00:10:48;5.97;;;5.30;;
8831;SDS011;4452;50.756;4.472;2023-06-22T00:13:14;8.32;;;5.25;;
8831;SDS011;4452;50.756;4.472;2023-06-22T00:15:41;6.63;;;5.60;;
8831;SDS011;4452;50.756;4.472;2023-06-22T00:18:07;10.70;;;5.50;;
8831;SDS011;4452;50.756;4.472;2023-06-22T00:20:33;7.75;;;5.47;;
8831;SDS011;4452;50.756;4.472;2023-06-22T00:23:02;6.85;;;5.50;;
8831;SDS011;4452;50.756;4.472;2023-06-22T00:28:02;7.18;;;5.38;;
8831;SDS011;4452;50.756;4.472;2023-06-22T00:30:29;8.07;;;5.70;;
8831;SDS011;4452;50.756;4.472;2023-06-22T00:32:55;6.80;;;5.38;;
8831;SDS011;4452;50.756;4.472;2023-06-22T00:35:21;8.13;;;5.72;;
8831;SDS011;4452;50.756;4.472;2023-06-22T00:37:47;6.78;;;5.60;;
8831;SDS011;4452;50.756;4.472;2023-06-22T00:40:13;7.25;;;5.50;;
8831;SDS011;4452;50.756;4.472;2023-06-22T00:42:39;8.23;;;5.78;;
8831;SDS011;4452;50.756;4.472;2023-06-22T00:45:06;8.50;;;5.60;;
8831;SDS011;4452;50.756;4.472;2023-06-22T00:47:33;8.23;;;5.38;;
8831;SDS011;4452;50.756;4.472;2023-06-22T00:50:00;7.18;;;5.55;;
8831;SDS011;4452;50.756;4.472;2023-06-22T00:52:28;7.38;;;5.68;;
8831;SDS011;4452;50.756;4.472;2023-06-22T00:54:56;6.63;;;5.93;;
8831;SDS011;4452;50.756;4.472;2023-06-22T00:57:24;8.57;;;5.75;;
8831;SDS011;4452;50.756;4.472;2023-06-22T00:59:53;6.55;;;4.80;;
8831;SDS011;4452;50.756;4.472;2023-06-22T01:02:19;8.05;;;5.13;;
8831;SDS011;4452;50.756;4.472;2023-06-22T01:04:45;6.38;;;5.40;;
8831;SDS011;4452;50.756;4.472;2023-06-22T01:09:51;5.97;;;5.38;;
8831;SDS011;4452;50.756;4.472;2023-06-22T01:12:24;7.38;;;5.57;;
8831;SDS011;4452;50.756;4.472;2023-06-22T01:15:02;7.35;;;5.72;;
8831;SDS011;4452;50.756;4.472;2023-06-22T01:17:34;6.90;;;5.75;;
8831;SDS011;4452;50.756;4.472;2023-06-22T01:20:01;7.72;;;5.95;;
8831;SDS011;4452;50.756;4.472;2023-06-22T01:22:32;7.28;;;5.75;;
8831;SDS011;4452;50.756;4.472;2023-06-22T01:30:16;7.53;;;5.40;;
8831;SDS011;4452;50.756;4.472;2023-06-22T01:32:44;10.90;;;5.68;;
8831;SDS011;4452;50.756;4.472;2023-06-22T01:35:10;6.60;;;5.18;;
8831;SDS011;4452;50.756;4.472;2023-06-22T01:37:37;8.73;;;5.90;;
8831;SDS011;4452;50.756;4.472;2023-06-22T01:40:04;9.70;;;5.45;;
8831;SDS011;4452;50.756;4.472;2023-06-22T01:42:33;7.18;;;5.45;;
8831;SDS011;4452;50.756;4.472;2023-06-22T01:45:00;6.70;;;5.43;;
8831;SDS011;4452;50.756;4.472;2023-06-22T01:47:26;6.82;;;5.00;;
8831;SDS011;4452;50.756;4.472;2023-06-22T01:49:53;7.47;;;5.82;;
8831;SDS011;4452;50.756;4.472;2023-06-22T01:52:19;6.78;;;5.90;;
8831;SDS011;4452;50.756;4.472;2023-06-22T01:54:46;8.68;;;5.63;;
8831;SDS011;4452;50.756;4.472;2023-06-22T01:57:12;7.93;;;5.55;;
8831;SDS011;4452;50.756;4.472;2023-06-22T02:02:16;8.63;;;5.65;;
8831;SDS011;4452;50.756;4.472;2023-06-22T02:04:46;7.65;;;4.93;;
8831;SDS011;4452;50.756;4.472;2023-06-22T02:07:17;8.38;;;5.55;;
8831;SDS011;4452;50.756;4.472;2023-06-22T02:09:45;10.52;;;5.50;;
8831;SDS011;4452;50.756;4.472;2023-06-22T02:12:15;9.82;;;5.45;;
8831;SDS011;4452;50.756;4.472;2023-06-22T02:14:45;9.98;;;5.10;;
8831;SDS011;4452;50.756;4.472;2023-06-22T02:17:11;6.80;;;5.07;;
8831;SDS011;4452;50.756;4.472;2023-06-22T02:19:37;5.90;;;5.30;;
8831;SDS011;4452;50.756;4.472;2023-06-22T02:22:05;6.70;;;4.90;;
8831;SDS011;4452;50.756;4.472;2023-06-22T02:24:31;8.15;;;5.25;;
8831;SDS011;4452;50.756;4.472;2023-06-22T02:26:58;10.30;;;5.50;;
8831;SDS011;4452;50.756;4.472;2023-06-22T02:29:25;12.80;;;5.30;;
8831;SDS011;4452;50.756;4.472;2023-06-22T02:31:52;7.20;;;5.43;;
8831;SDS011;4452;50.756;4.472;2023-06-22T02:34:18;8.52;;;5.80;;
8831;SDS011;4452;50.756;4.472;2023-06-22T02:36:47;8.25;;;5.53;;
8831;SDS011;4452;50.756;4.472;2023-06-22T02:39:20;7.63;;;5.63;;
8831;SDS011;4452;50.756;4.472;2023-06-22T02:41:48;6.50;;;5.53;;
8831;SDS011;4452;50.756;4.472;2023-06-22T02:44:18;7.20;;;5.28;;
8831;SDS011;4452;50.756;4.472;2023-06-22T02:46:44;6.28;;;5.30;;
8831;SDS011;4452;50.756;4.472;2023-06-22T02:49:10;5.68;;;5.10;;
8831;SDS011;4452;50.756;4.472;2023-06-22T02:51:38;9.73;;;5.28;;
8831;SDS011;4452;50.756;4.472;2023-06-22T02:54:06;8.82;;;5.20;;
8831;SDS011;4452;50.756;4.472;2023-06-22T02:56:32;9.70;;;5.70;;
8831;SDS011;4452;50.756;4.472;2023-06-22T02:58:58;6.43;;;5.35;;
8831;SDS011;4452;50.756;4.472;2023-06-22T03:01:27;7.13;;;5.47;;
8831;SDS011;4452;50.756;4.472;2023-06-22T03:03:52;7.65;;;5.53;;
8831;SDS011;4452;50.756;4.472;2023-06-22T03:06:19;6.80;;;6.07;;
8831;SDS011;4452;50.756;4.472;2023-06-22T03:08:48;7.38;;;5.70;;
8831;SDS011;4452;50.756;4.472;2023-06-22T03:11:15;6.93;;;6.03;;
8831;SDS011;4452;50.756;4.472;2023-06-22T03:13:41;6.68;;;6.03;;
8831;SDS011;4452;50.756;4.472;2023-06-22T03:16:06;9.20;;;5.60;;
8831;SDS011;4452;50.756;4.472;2023-06-22T03:18:32;12.10;;;5.95;;
8831;SDS011;4452;50.756;4.472;2023-06-22T03:20:58;8.65;;;5.63;;
8831;SDS011;4452;50.756;4.472;2023-06-22T03:23:23;8.40;;;5.93;;
8831;SDS011;4452;50.756;4.472;2023-06-22T03:25:49;9.70;;;5.32;;
8831;SDS011;4452;50.756;4.472;2023-06-22T03:28:15;12.55;;;6.05;;
8831;SDS011;4452;50.756;4.472;2023-06-22T03:30:41;10.10;;;6.00;;
8831;SDS011;4452;50.756;4.472;2023-06-22T03:33:06;6.80;;;6.05;;
8831;SDS011;4452;50.756;4.472;2023-06-22T03:35:32;8.15;;;5.45;;
8831;SDS011;4452;50.756;4.472;2023-06-22T03:37:58;8.52;;;6.03;;
8831;SDS011;4452;50.756;4.472;2023-06-22T03:40:23;8.32;;;5.88;;
8831;SDS011;4452;50.756;4.472;2023-06-22T03:42:49;7.78;;;5.70;;
8831;SDS011;4452;50.756;4.472;2023-06-22T03:45:15;10.32;;;5.57;;
8831;SDS011;4452;50.756;4.472;2023-06-22T03:47:41;8.18;;;6.43;;
8831;SDS011;4452;50.756;4.472;2023-06-22T03:50:07;8.50;;;6.40;;
8831;SDS011;4452;50.756;4.472;2023-06-22T03:52:33;8.70;;;6.35;;
8831;SDS011;4452;50.756;4.472;2023-06-22T03:54:58;22.33;;;8.35;;
8831;SDS011;4452;50.756;4.472;2023-06-22T03:57:24;36.38;;;10.40;;
8831;SDS011;4452;50.756;4.472;2023-06-22T03:59:50;23.95;;;12.35;;
8831;SDS011;4452;50.756;4.472;2023-06-22T04:02:15;35.65;;;11.23;;
8831;SDS011;4452;50.756;4.472;2023-06-22T04:04:41;23.13;;;9.38;;
8831;SDS011;4452;50.756;4.472;2023-06-22T04:07:07;13.90;;;7.45;;
8831;SDS011;4452;50.756;4.472;2023-06-22T04:09:33;17.85;;;7.70;;
8831;SDS011;4452;50.756;4.472;2023-06-22T04:11:59;12.60;;;7.72;;
8831;SDS011;4452;50.756;4.472;2023-06-22T04:14:24;13.05;;;7.40;;
8831;SDS011;4452;50.756;4.472;2023-06-22T04:16:51;16.55;;;8.00;;
8831;SDS011;4452;50.756;4.472;2023-06-22T04:19:17;18.88;;;8.38;;
8831;SDS011;4452;50.756;4.472;2023-06-22T04:21:43;14.35;;;8.73;;
8831;SDS011;4452;50.756;4.472;2023-06-22T04:24:09;18.38;;;10.23;;
8831;SDS011;4452;50.756;4.472;2023-06-22T04:26:36;16.80;;;9.52;;
8831;SDS011;4452;50.756;4.472;2023-06-22T04:29:06;27.58;;;11.13;;
8831;SDS011;4452;50.756;4.472;2023-06-22T04:31:34;21.20;;;11.48;;
8831;SDS011;4452;50.756;4.472;2023-06-22T04:34:02;23.80;;;11.95;;
8831;SDS011;4452;50.756;4.472;2023-06-22T04:36:38;20.13;;;12.20;;
8831;SDS011;4452;50.756;4.472;2023-06-22T04:39:06;24.23;;;12.88;;
8831;SDS011;4452;50.756;4.472;2023-06-22T04:41:38;22.75;;;12.15;;
8831;SDS011;4452;50.756;4.472;2023-06-22T04:44:17;22.55;;;11.30;;
8831;SDS011;4452;50.756;4.472;2023-06-22T04:46:56;18.90;;;10.30;;
8831;SDS011;4452;50.756;4.472;2023-06-22T04:49:28;16.60;;;10.23;;
8831;SDS011;4452;50.756;4.472;2023-06-22T04:51:58;23.08;;;9.85;;
8831;SDS011;4452;50.756;4.472;2023-06-22T04:54:25;18.38;;;10.15;;
8831;SDS011;4452;50.756;4.472;2023-06-22T04:56:51;15.48;;;10.13;;
8831;SDS011;4452;50.756;4.472;2023-06-22T04:59:28;22.52;;;11.63;;
8831;SDS011;4452;50.756;4.472;2023-06-22T05:01:56;23.13;;;11.15;;
8831;SDS011;4452;50.756;4.472;2023-06-22T05:04:28;20.88;;;12.07;;
8831;SDS011;4452;50.756;4.472;2023-06-22T05:06:58;18.80;;;12.32;;
8831;SDS011;4452;50.756;4.472;2023-06-22T05:09:25;20.50;;;13.10;;
8831;SDS011;4452;50.756;4.472;2023-06-22T05:11:51;23.63;;;13.48;;
8831;SDS011;4452;50.756;4.472;2023-06-22T05:14:17;26.27;;;13.63;;
8831;SDS011;4452;50.756;4.472;2023-06-22T05:16:44;19.05;;;12.95;;
8831;SDS011;4452;50.756;4.472;2023-06-22T05:19:11;17.95;;;13.18;;
8831;SDS011;4452;50.756;4.472;2023-06-22T05:21:37;25.00;;;13.13;;
8831;SDS011;4452;50.756;4.472;2023-06-22T05:24:03;31.42;;;14.00;;
8831;SDS011;4452;50.756;4.472;2023-06-22T05:26:30;19.25;;;13.15;;
8831;SDS011;4452;50.756;4.472;2023-06-22T05:28:57;22.35;;;13.77;;
8831;SDS011;4452;50.756;4.472;2023-06-22T05:31:24;21.83;;;14.25;;
8831;SDS011;4452;50.756;4.472;2023-06-22T05:33:51;25.45;;;14.75;;
8831;SDS011;4452;50.756;4.472;2023-06-22T05:36:18;24.13;;;14.10;;
8831;SDS011;4452;50.756;4.472;2023-06-22T05:38:50;24.63;;;15.55;;
8831;SDS011;4452;50.756;4.472;2023-06-22T05:41:17;25.50;;;15.32;;
8831;SDS011;4452;50.756;4.472;2023-06-22T05:43:43;29.70;;;15.48;;
8831;SDS011;4452;50.756;4.472;2023-06-22T05:46:09;24.38;;;15.77;;
8831;SDS011;4452;50.756;4.472;2023-06-22T05:48:34;29.38;;;16.52;;
8831;SDS011;4452;50.756;4.472;2023-06-22T05:51:00;27.20;;;17.02;;
8831;SDS011;4452;50.756;4.472;2023-06-22T05:53:26;24.45;;;15.98;;
8831;SDS011;4452;50.756;4.472;2023-06-22T05:55:51;32.72;;;17.85;;
8831;SDS011;4452;50.756;4.472;2023-06-22T05:58:17;30.77;;;17.00;;
8831;SDS011;4452;50.756;4.472;2023-06-22T06:00:43;26.30;;;17.67;;
8831;SDS011;4452;50.756;4.472;2023-06-22T06:03:09;31.92;;;18.88;;
8831;SDS011;4452;50.756;4.472;2023-06-22T06:05:36;28.08;;;18.27;;
8831;SDS011;4452;50.756;4.472;2023-06-22T06:08:03;29.63;;;18.73;;
8831;SDS011;4452;50.756;4.472;2023-06-22T06:10:31;26.40;;;17.75;;
8831;SDS011;4452;50.756;4.472;2023-06-22T06:12:57;28.35;;;18.65;;
8831;SDS011;4452;50.756;4.472;2023-06-22T06:15:23;27.33;;;18.15;;
8831;SDS011;4452;50.756;4.472;2023-06-22T06:17:49;27.98;;;18.00;;
8831;SDS011;4452;50.756;4.472;2023-06-22T06:20:18;32.03;;;18.13;;
8831;SDS011;4452;50.756;4.472;2023-06-22T06:22:46;30.80;;;19.10;;
8831;SDS011;4452;50.756;4.472;2023-06-22T06:25:12;27.63;;;18.77;;
8831;SDS011;4452;50.756;4.472;2023-06-22T06:27:44;27.55;;;18.05;;
8831;SDS011;4452;50.756;4.472;2023-06-22T06:30:14;31.48;;;18.15;;
8831;SDS011;4452;50.756;4.472;2023-06-22T06:32:40;28.50;;;18.80;;
8831;SDS011;4452;50.756;4.472;2023-06-22T06:35:07;25.50;;;17.27;;
8831;SDS011;4452;50.756;4.472;2023-06-22T06:37:35;22.45;;;16.75;;
8831;SDS011;4452;50.756;4.472;2023-06-22T06:40:03;22.92;;;16.95;;
8831;SDS011;4452;50.756;4.472;2023-06-22T06:42:31;24.73;;;16.13;;
8831;SDS011;4452;50.756;4.472;2023-06-22T06:44:57;25.30;;;16.58;;
8831;SDS011;4452;50.756;4.472;2023-06-22T06:47:22;24.23;;;17.55;;
8831;SDS011;4452;50.756;4.472;2023-06-22T06:49:48;26.58;;;17.23;;
8831;SDS011;4452;50.756;4.472;2023-06-22T06:52:14;25.30;;;16.13;;
8831;SDS011;4452;50.756;4.472;2023-06-22T06:54:39;27.23;;;16.95;;
8831;SDS011;4452;50.756;4.472;2023-06-22T06:57:07;24.88;;;16.20;;
8831;SDS011;4452;50.756;4.472;2023-06-22T06:59:35;25.77;;;16.27;;
8831;SDS011;4452;50.756;4.472;2023-06-22T07:02:01;28.15;;;16.65;;
8831;SDS011;4452;50.756;4.472;2023-06-22T07:04:27;23.67;;;16.02;;
8831;SDS011;4452;50.756;4.472;2023-06-22T07:06:52;30.75;;;16.95;;
8831;SDS011;4452;50.756;4.472;2023-06-22T07:09:18;23.85;;;16.48;;
8831;SDS011;4452;50.756;4.472;2023-06-22T07:11:44;25.77;;;17.23;;
8831;SDS011;4452;50.756;4.472;2023-06-22T07:14:09;22.23;;;16.15;;
8831;SDS011;4452;50.756;4.472;2023-06-22T07:16:35;22.75;;;15.73;;
8831;SDS011;4452;50.756;4.472;2023-06-22T07:19:00;25.52;;;16.27;;
8831;SDS011;4452;50.756;4.472;2023-06-22T07:21:26;27.98;;;17.13;;
8831;SDS011;4452;50.756;4.472;2023-06-22T07:23:52;22.90;;;16.00;;
8831;SDS011;4452;50.756;4.472;2023-06-22T07:26:17;23.80;;;16.77;;
8831;SDS011;4452;50.756;4.472;2023-06-22T07:28:43;27.23;;;16.25;;
8831;SDS011;4452;50.756;4.472;2023-06-22T07:31:09;28.02;;;16.05;;
8831;SDS011;4452;50.756;4.472;2023-06-22T07:33:34;26.63;;;15.30;;
8831;SDS011;4452;50.756;4.472;2023-06-22T07:36:00;23.48;;;14.77;;
8831;SDS011;4452;50.756;4.472;2023-06-22T07:38:27;27.67;;;15.45;;
8831;SDS011;4452;50.756;4.472;2023-06-22T07:40:53;27.27;;;13.68;;
8831;SDS011;4452;50.756;4.472;2023-06-22T07:43:19;21.10;;;14.32;;
8831;SDS011;4452;50.756;4.472;2023-06-22T07:45:48;19.05;;;12.73;;
8831;SDS011;4452;50.756;4.472;2023-06-22T07:48:17;15.98;;;11.98;;
8831;SDS011;4452;50.756;4.472;2023-06-22T07:50:47;19.08;;;12.55;;
8831;SDS011;4452;50.756;4.472;2023-06-22T07:53:13;20.27;;;12.57;;
8831;SDS011;4452;50.756;4.472;2023-06-22T07:55:39;17.65;;;12.18;;
8831;SDS011;4452;50.756;4.472;2023-06-22T07:58:04;16.67;;;12.18;;
8831;SDS011;4452;50.756;4.472;2023-06-22T08:00:30;21.30;;;13.00;;
8831;SDS011;4452;50.756;4.472;2023-06-22T08:02:58;22.20;;;12.35;;
8831;SDS011;4452;50.756;4.472;2023-06-22T08:05:25;16.67;;;11.98;;
8831;SDS011;4452;50.756;4.472;2023-06-22T08:07:50;18.13;;;12.45;;
8831;SDS011;4452;50.756;4.472;2023-06-22T08:10:16;19.27;;;12.70;;
8831;SDS011;4452;50.756;4.472;2023-06-22T08:12:42;18.92;;;12.95;;
8831;SDS011;4452;50.756;4.472;2023-06-22T08:15:08;21.00;;;12.55;;
8831;SDS011;4452;50.756;4.472;2023-06-22T08:17:36;18.08;;;11.80;;
8831;SDS011;4452;50.756;4.472;2023-06-22T08:20:02;18.83;;;13.20;;
8831;SDS011;4452;50.756;4.472;2023-06-22T08:22:34;17.25;;;12.80;;
8831;SDS011;4452;50.756;4.472;2023-06-22T08:25:01;17.90;;;13.80;;
8831;SDS011;4452;50.756;4.472;2023-06-22T08:27:28;20.98;;;13.48;;
8831;SDS011;4452;50.756;4.472;2023-06-22T08:29:56;15.32;;;11.68;;
8831;SDS011;4452;50.756;4.472;2023-06-22T08:32:24;19.52;;;12.70;;
8831;SDS011;4452;50.756;4.472;2023-06-22T08:34:52;18.77;;;12.05;;
8831;SDS011;4452;50.756;4.472;2023-06-22T08:37:18;19.13;;;12.75;;
8831;SDS011;4452;50.756;4.472;2023-06-22T08:39:44;18.48;;;13.05;;
8831;SDS011;4452;50.756;4.472;2023-06-22T08:42:10;19.00;;;12.85;;
8831;SDS011;4452;50.756;4.472;2023-06-22T08:44:36;17.52;;;12.35;;
8831;SDS011;4452;50.756;4.472;2023-06-22T08:47:02;17.92;;;13.27;;
8831;SDS011;4452;50.756;4.472;2023-06-22T08:49:28;17.23;;;11.93;;
8831;SDS011;4452;50.756;4.472;2023-06-22T08:51:54;15.13;;;12.13;;
8831;SDS011;4452;50.756;4.472;2023-06-22T08:54:21;20.10;;;11.80;;
8831;SDS011;4452;50.756;4.472;2023-06-22T08:56:47;17.13;;;11.93;;
8831;SDS011;4452;50.756;4.472;2023-06-22T08:59:13;15.93;;;12.30;;
8831;SDS011;4452;50.756;4.472;2023-06-22T09:01:38;14.07;;;11.88;;
8831;SDS011;4452;50.756;4.472;2023-06-22T09:04:04;20.75;;;12.75;;
8831;SDS011;4452;50.756;4.472;2023-06-22T09:06:31;15.82;;;12.50;;
8831;SDS011;4452;50.756;4.472;2023-06-22T09:08:57;16.27;;;12.10;;
8831;SDS011;4452;50.756;4.472;2023-06-22T09:11:24;19.63;;;12.35;;
8831;SDS011;4452;50.756;4.472;2023-06-22T09:13:50;19.75;;;12.65;;
8831;SDS011;4452;50.756;4.472;2023-06-22T09:16:17;18.02;;;12.50;;
8831;SDS011;4452;50.756;4.472;2023-06-22T09:18:45;18.75;;;12.90;;
8831;SDS011;4452;50.756;4.472;2023-06-22T09:21:12;17.42;;;12.40;;
8831;SDS011;4452;50.756;4.472;2023-06-22T09:23:38;17.38;;;13.50;;
8831;SDS011;4452;50.756;4.472;2023-06-22T09:26:03;19.30;;;14.32;;
8831;SDS011;4452;50.756;4.472;2023-06-22T09:28:29;21.27;;;14.25;;
8831;SDS011;4452;50.756;4.472;2023-06-22T09:30:55;23.05;;;15.95;;
8831;SDS011;4452;50.756;4.472;2023-06-22T09:33:24;24.98;;;16.98;;
8831;SDS011;4452;50.756;4.472;2023-06-22T09:35:51;21.73;;;15.32;;
8831;SDS011;4452;50.756;4.472;2023-06-22T09:38:17;18.95;;;15.20;;
8831;SDS011;4452;50.756;4.472;2023-06-22T09:40:42;25.23;;;15.57;;
8831;SDS011;4452;50.756;4.472;2023-06-22T09:43:08;22.83;;;15.50;;
8831;SDS011;4452;50.756;4.472;2023-06-22T09:45:34;22.80;;;15.82;;
8831;SDS011;4452;50.756;4.472;2023-06-22T09:47:59;22.15;;;16.63;;
8831;SDS011;4452;50.756;4.472;2023-06-22T09:50:25;20.08;;;15.65;;
8831;SDS011;4452;50.756;4.472;2023-06-22T09:52:51;23.27;;;15.60;;
8831;SDS011;4452;50.756;4.472;2023-06-22T09:55:20;21.75;;;16.92;;
8831;SDS011;4452;50.756;4.472;2023-06-22T09:57:46;24.63;;;17.25;;
8831;SDS011;4452;50.756;4.472;2023-06-22T10:00:12;20.38;;;15.82;;
8831;SDS011;4452;50.756;4.472;2023-06-22T10:02:40;22.65;;;16.83;;
8831;SDS011;4452;50.756;4.472;2023-06-22T10:05:06;62.33;;;19.30;;
8831;SDS011;4452;50.756;4.472;2023-06-22T10:07:33;33.85;;;21.23;;
8831;SDS011;4452;50.756;4.472;2023-06-22T10:09:58;31.40;;;21.00;;
8831;SDS011;4452;50.756;4.472;2023-06-22T10:12:25;38.22;;;22.75;;
8831;SDS011;4452;50.756;4.472;2023-06-22T10:14:52;28.13;;;17.13;;
8831;SDS011;4452;50.756;4.472;2023-06-22T10:17:18;33.45;;;22.00;;
8831;SDS011;4452;50.756;4.472;2023-06-22T10:19:43;46.80;;;21.58;;
8831;SDS011;4452;50.756;4.472;2023-06-22T10:22:09;37.90;;;20.80;;
8831;SDS011;4452;50.756;4.472;2023-06-22T10:24:35;51.15;;;22.27;;
8831;SDS011;4452;50.756;4.472;2023-06-22T10:27:00;34.45;;;22.15;;
8831;SDS011;4452;50.756;4.472;2023-06-22T10:29:26;35.05;;;18.85;;
8831;SDS011;4452;50.756;4.472;2023-06-22T10:31:52;25.42;;;16.75;;
8831;SDS011;4452;50.756;4.472;2023-06-22T10:34:17;40.42;;;22.77;;
8831;SDS011;4452;50.756;4.472;2023-06-22T10:36:43;46.08;;;22.65;;
8831;SDS011;4452;50.756;4.472;2023-06-22T10:39:11;36.55;;;18.02;;
8831;SDS011;4452;50.756;4.472;2023-06-22T10:41:37;47.03;;;24.55;;
8831;SDS011;4452;50.756;4.472;2023-06-22T10:44:02;52.03;;;25.85;;
8831;SDS011;4452;50.756;4.472;2023-06-22T10:46:28;45.28;;;26.00;;
8831;SDS011;4452;50.756;4.472;2023-06-22T10:48:53;37.72;;;22.88;;
8831;SDS011;4452;50.756;4.472;2023-06-22T10:51:21;53.75;;;29.90;;
8831;SDS011;4452;50.756;4.472;2023-06-22T10:53:47;0.90;;;0.90;;
8831;SDS011;4452;50.756;4.472;2023-06-22T10:56:13;1.02;;;1.02;;
8831;SDS011;4452;50.756;4.472;2023-06-22T10:58:38;1.15;;;1.15;;
8831;SDS011;4452;50.756;4.472;2023-06-22T11:01:04;1.27;;;1.27;;
8831;SDS011;4452;50.756;4.472;2023-06-22T11:03:30;0.68;;;0.68;;
8831;SDS011;4452;50.756;4.472;2023-06-22T11:05:55;1.02;;;1.02;;
8831;SDS011;4452;50.756;4.472;2023-06-22T11:08:21;1.70;;;1.60;;
8831;SDS011;4452;50.756;4.472;2023-06-22T11:10:46;0.85;;;0.85;;
8831;SDS011;4452;50.756;4.472;2023-06-22T11:13:12;1.48;;;1.40;;
8831;SDS011;4452;50.756;4.472;2023-06-22T11:15:38;1.42;;;1.35;;
8831;SDS011;4452;50.756;4.472;2023-06-22T11:18:04;0.68;;;0.68;;
8831;SDS011;4452;50.756;4.472;2023-06-22T11:20:30;0.88;;;0.68;;
8831;SDS011;4452;50.756;4.472;2023-06-22T11:22:58;1.50;;;1.40;;
8831;SDS011;4452;50.756;4.472;2023-06-22T11:25:25;0.98;;;0.93;;
8831;SDS011;4452;50.756;4.472;2023-06-22T11:27:50;2.55;;;2.35;;
8831;SDS011;4452;50.756;4.472;2023-06-22T11:30:18;1.25;;;1.25;;
8831;SDS011;4452;50.756;4.472;2023-06-22T11:32:44;1.90;;;1.70;;
8831;SDS011;4452;50.756;4.472;2023-06-22T11:35:10;1.13;;;1.02;;
8831;SDS011;4452;50.756;4.472;2023-06-22T11:37:36;0.75;;;0.75;;
8831;SDS011;4452;50.756;4.472;2023-06-22T11:40:01;2.60;;;1.75;;
8831;SDS011;4452;50.756;4.472;2023-06-22T11:42:30;0.65;;;0.65;;
8831;SDS011;4452;50.756;4.472;2023-06-22T11:44:56;2.92;;;1.85;;
8831;SDS011;4452;50.756;4.472;2023-06-22T11:47:21;6.13;;;2.08;;
8831;SDS011;4452;50.756;4.472;2023-06-22T11:49:47;2.75;;;1.73;;
8831;SDS011;4452;50.756;4.472;2023-06-22T11:52:12;4.30;;;2.00;;
8831;SDS011;4452;50.756;4.472;2023-06-22T11:54:38;0.95;;;0.95;;
8831;SDS011;4452;50.756;4.472;2023-06-22T11:57:04;2.47;;;1.90;;
8831;SDS011;4452;50.756;4.472;2023-06-22T11:59:29;1.55;;;1.45;;
8831;SDS011;4452;50.756;4.472;2023-06-22T12:01:55;5.38;;;2.83;;
8831;SDS011;4452;50.756;4.472;2023-06-22T12:04:23;2.92;;;2.30;;
8831;SDS011;4452;50.756;4.472;2023-06-22T12:06:48;0.82;;;0.82;;
8831;SDS011;4452;50.756;4.472;2023-06-22T12:09:14;1.20;;;1.20;;
8831;SDS011;4452;50.756;4.472;2023-06-22T12:11:40;2.92;;;2.70;;
8831;SDS011;4452;50.756;4.472;2023-06-22T12:14:05;0.60;;;0.60;;
8831;SDS011;4452;50.756;4.472;2023-06-22T12:16:31;3.20;;;2.20;;
8831;SDS011;4452;50.756;4.472;2023-06-22T12:18:57;2.05;;;1.55;;
8831;SDS011;4452;50.756;4.472;2023-06-22T12:21:22;0.82;;;0.82;;
8831;SDS011;4452;50.756;4.472;2023-06-22T12:23:48;0.90;;;0.90;;
8831;SDS011;4452;50.756;4.472;2023-06-22T12:26:14;1.17;;;1.17;;
8831;SDS011;4452;50.756;4.472;2023-06-22T12:28:40;3.97;;;1.88;;
8831;SDS011;4452;50.756;4.472;2023-06-22T12:31:05;3.05;;;0.98;;
8831;SDS011;4452;50.756;4.472;2023-06-22T12:33:31;1.40;;;1.30;;
8831;SDS011;4452;50.756;4.472;2023-06-22T12:35:57;1.83;;;1.73;;
8831;SDS011;4452;50.756;4.472;2023-06-22T12:38:22;2.17;;;2.05;;
8831;SDS011;4452;50.756;4.472;2023-06-22T12:40:50;2.47;;;2.28;;
8831;SDS011;4452;50.756;4.472;2023-06-22T12:43:16;1.27;;;1.27;;
8831;SDS011;4452;50.756;4.472;2023-06-22T12:45:41;1.40;;;1.27;;
8831;SDS011;4452;50.756;4.472;2023-06-22T12:48:07;5.63;;;3.08;;
8831;SDS011;4452;50.756;4.472;2023-06-22T12:50:33;1.45;;;1.42;;
8831;SDS011;4452;50.756;4.472;2023-06-22T12:52:59;0.80;;;0.80;;
8831;SDS011;4452;50.756;4.472;2023-06-22T12:55:27;1.02;;;1.02;;
8831;SDS011;4452;50.756;4.472;2023-06-22T12:57:52;1.48;;;1.45;;
8831;SDS011;4452;50.756;4.472;2023-06-22T13:00:18;1.70;;;1.60;;
8831;SDS011;4452;50.756;4.472;2023-06-22T13:02:44;2.03;;;1.85;;
8831;SDS011;4452;50.756;4.472;2023-06-22T13:05:10;1.20;;;1.20;;
8831;SDS011;4452;50.756;4.472;2023-06-22T13:07:36;2.45;;;1.65;;
8831;SDS011;4452;50.756;4.472;2023-06-22T13:10:02;1.38;;;1.25;;
8831;SDS011;4452;50.756;4.472;2023-06-22T13:12:28;1.15;;;1.15;;
8831;SDS011;4452;50.756;4.472;2023-06-22T13:14:54;2.38;;;2.10;;
8831;SDS011;4452;50.756;4.472;2023-06-22T13:17:20;0.88;;;0.88;;
8831;SDS011;4452;50.756;4.472;2023-06-22T13:19:46;1.45;;;1.35;;
8831;SDS011;4452;50.756;4.472;2023-06-22T13:25:04;1.10;;;1.10;;
8831;SDS011;4452;50.756;4.472;2023-06-22T13:27:31;1.08;;;1.08;;
8831;SDS011;4452;50.756;4.472;2023-06-22T13:29:57;1.67;;;1.50;;
8831;SDS011;4452;50.756;4.472;2023-06-22T13:32:23;1.13;;;1.05;;
8831;SDS011;4452;50.756;4.472;2023-06-22T13:34:48;2.55;;;1.63;;
8831;SDS011;4452;50.756;4.472;2023-06-22T13:37:14;0.85;;;0.85;;
8831;SDS011;4452;50.756;4.472;2023-06-22T13:39:40;1.35;;;1.33;;
8831;SDS011;4452;50.756;4.472;2023-06-22T13:42:05;1.63;;;1.52;;
8831;SDS011;4452;50.756;4.472;2023-06-22T13:44:31;2.30;;;2.13;;
8831;SDS011;4452;50.756;4.472;2023-06-22T13:46:57;1.15;;;1.15;;
8831;SDS011;4452;50.756;4.472;2023-06-22T13:49:23;3.10;;;2.83;;
8831;SDS011;4452;50.756;4.472;2023-06-22T13:51:49;0.88;;;0.88;;
8831;SDS011;4452;50.756;4.472;2023-06-22T13:54:15;3.53;;;2.88;;
8831;SDS011;4452;50.756;4.472;2023-06-22T13:56:41;2.08;;;1.90;;
8831;SDS011;4452;50.756;4.472;2023-06-22T13:59:07;1.70;;;1.60;;
8831;SDS011;4452;50.756;4.472;2023-06-22T14:01:34;2.00;;;1.92;;
8831;SDS011;4452;50.756;4.472;2023-06-22T14:04:00;1.77;;;1.67;;
8831;SDS011;4452;50.756;4.472;2023-06-22T14:06:29;2.45;;;2.33;;
8831;SDS011;4452;50.756;4.472;2023-06-22T14:08:54;2.67;;;2.47;;
8831;SDS011;4452;50.756;4.472;2023-06-22T14:11:21;1.63;;;1.58;;
8831;SDS011;4452;50.756;4.472;2023-06-22T14:13:46;2.20;;;1.95;;
8831;SDS011;4452;50.756;4.472;2023-06-22T14:16:12;1.88;;;1.75;;
8831;SDS011;4452;50.756;4.472;2023-06-22T14:18:38;1.08;;;1.08;;
8831;SDS011;4452;50.756;4.472;2023-06-22T14:21:03;2.33;;;2.17;;
8831;SDS011;4452;50.756;4.472;2023-06-22T14:23:29;2.40;;;2.03;;
8831;SDS011;4452;50.756;4.472;2023-06-22T14:25:55;1.70;;;1.60;;
8831;SDS011;4452;50.756;4.472;2023-06-22T14:28:20;1.55;;;1.48;;
8831;SDS011;4452;50.756;4.472;2023-06-22T14:30:46;1.60;;;1.45;;
8831;SDS011;4452;50.756;4.472;2023-06-22T14:33:12;1.75;;;1.65;;
8831;SDS011;4452;50.756;4.472;2023-06-22T14:35:38;1.67;;;1.60;;
8831;SDS011;4452;50.756;4.472;2023-06-22T14:38:03;1.83;;;1.40;;
8831;SDS011;4452;50.756;4.472;2023-06-22T14:40:29;2.72;;;2.05;;
8831;SDS011;4452;50.756;4.472;2023-06-22T14:42:55;2.58;;;2.35;;
8831;SDS011;4452;50.756;4.472;2023-06-22T14:45:22;2.10;;;2.00;;
8831;SDS011;4452;50.756;4.472;2023-06-22T14:47:48;1.25;;;1.15;;
8831;SDS011;4452;50.756;4.472;2023-06-22T14:50:13;1.42;;;1.42;;
8831;SDS011;4452;50.756;4.472;2023-06-22T14:52:39;1.88;;;1.30;;
8831;SDS011;4452;50.756;4.472;2023-06-22T14:55:05;80.38;;;42.67;;
8831;SDS011;4452;50.756;4.472;2023-06-22T14:57:31;89.03;;;46.75;;
8831;SDS011;4452;50.756;4.472;2023-06-22T14:59:56;2.00;;;1.88;;
8831;SDS011;4452;50.756;4.472;2023-06-22T15:02:22;2.30;;;2.15;;
8831;SDS011;4452;50.756;4.472;2023-06-22T15:04:48;1.45;;;1.35;;
8831;SDS011;4452;50.756;4.472;2023-06-22T15:07:14;1.70;;;1.58;;
8831;SDS011;4452;50.756;4.472;2023-06-22T15:09:40;1.77;;;1.67;;
8831;SDS011;4452;50.756;4.472;2023-06-22T15:12:07;4.53;;;1.88;;
8831;SDS011;4452;50.756;4.472;2023-06-22T15:14:37;1.27;;;1.25;;